createdAt,value
2022-12-11T00:00:29.760Z,0.47
2022-12-11T00:02:57.083Z,0.45
2022-12-11T00:05:24.325Z,0.42
2022-12-11T00:07:51.295Z,0.39
2022-12-11T00:10:18.321Z,0.37
2022-12-11T00:12:45.176Z,0.35
2022-12-11T00:15:12.515Z,0.35
2022-12-11T00:20:34.518Z,0.34
2022-12-11T00:23:01.732Z,0.36
2022-12-11T00:25:28.871Z,0.34
2022-12-11T00:27:56.106Z,0.34
2022-12-11T00:30:23.088Z,0.34
2022-12-11T00:32:52.270Z,0.32
2022-12-11T00:35:19.371Z,0.34
2022-12-11T00:37:46.263Z,0.34
2022-12-11T00:40:13.240Z,0.34
2022-12-11T00:42:40.092Z,0.36
2022-12-11T00:45:07.809Z,0.31
2022-12-11T00:47:34.886Z,0.32
2022-12-11T00:50:01.739Z,0.35
2022-12-11T00:52:28.635Z,0.35
2022-12-11T00:54:55.660Z,0.32
2022-12-11T00:57:22.708Z,0.30
2022-12-11T00:59:50.104Z,0.23
2022-12-11T01:02:17.004Z,0.18
2022-12-11T01:04:44.637Z,0.13
2022-12-11T01:07:11.558Z,0.12
2022-12-11T01:09:56.901Z,0.08
2022-12-11T01:12:23.963Z,0.08
2022-12-11T01:14:51.269Z,0.08
2022-12-11T01:17:18.149Z,0.12
2022-12-11T01:19:45.218Z,0.09
2022-12-11T01:22:12.108Z,0.03
2022-12-11T01:24:38.914Z,0.02
2022-12-11T01:27:05.722Z,0.05
2022-12-11T01:29:34.306Z,0.03
2022-12-11T01:32:01.131Z,0.05
2022-12-11T01:34:31.557Z,0.03
2022-12-11T01:36:58.423Z,0.04
2022-12-11T01:39:25.428Z,0.00
2022-12-11T01:41:58.486Z,0.02
2022-12-11T01:44:25.248Z,0.02
2022-12-11T01:46:53.337Z,0.02
2022-12-11T01:49:23.520Z,-0.01
2022-12-11T01:52:01.943Z,-0.03
2022-12-11T01:54:30.388Z,-0.07
2022-12-11T01:57:04.712Z,-0.07
2022-12-11T01:59:35.622Z,-0.10
2022-12-11T02:02:18.175Z,-0.10
2022-12-11T02:04:46.476Z,-0.12
2022-12-11T02:07:13.503Z,-0.10
2022-12-11T02:09:42.985Z,-0.11
2022-12-11T02:12:26.421Z,-0.13
2022-12-11T02:15:21.300Z,-0.19
2022-12-11T02:17:53.176Z,-0.23
2022-12-11T02:20:54.550Z,-0.18
2022-12-11T02:23:27.815Z,-0.18
2022-12-11T02:26:13.072Z,-0.15
2022-12-11T02:28:52.263Z,-0.14
2022-12-11T02:31:27.932Z,-0.12
2022-12-11T02:34:13.214Z,-0.15
2022-12-11T02:36:45.247Z,-0.21
2022-12-11T02:39:15.803Z,-0.21
2022-12-11T02:41:46.863Z,-0.21
2022-12-11T02:44:17.281Z,-0.21
2022-12-11T02:46:44.788Z,-0.24
2022-12-11T02:49:13.898Z,-0.22
2022-12-11T02:51:42.735Z,-0.22
2022-12-11T02:54:16.213Z,-0.19
2022-12-11T02:56:51.051Z,-0.21
2022-12-11T02:59:29.180Z,-0.21
2022-12-11T03:01:56.264Z,-0.23
2022-12-11T03:04:25.195Z,-0.23
2022-12-11T03:06:56.605Z,-0.21
2022-12-11T03:09:23.786Z,-0.18
2022-12-11T03:11:50.592Z,-0.15
2022-12-11T03:14:17.571Z,-0.16
2022-12-11T03:17:14.551Z,-0.19
2022-12-11T03:19:55.906Z,-0.24
2022-12-11T03:22:34.097Z,-0.25
2022-12-11T03:25:32.616Z,-0.23
2022-12-11T03:28:22.342Z,-0.21
2022-12-11T03:30:51.588Z,-0.21
2022-12-11T03:33:27.401Z,-0.17
2022-12-11T03:35:59.511Z,-0.20
2022-12-11T03:38:39.183Z,-0.16
2022-12-11T03:41:08.199Z,-0.20
2022-12-11T03:43:36.010Z,-0.22
2022-12-11T03:46:03.474Z,-0.23
2022-12-11T03:48:33.857Z,-0.25
2022-12-11T03:51:04.550Z,-0.26
2022-12-11T03:53:33.732Z,-0.32
2022-12-11T03:56:02.101Z,-0.36
2022-12-11T03:58:29.217Z,-0.38
2022-12-11T04:00:56.359Z,-0.42
2022-12-11T04:03:23.263Z,-0.38
2022-12-11T04:05:52.969Z,-0.37
2022-12-11T04:08:21.659Z,-0.39
2022-12-11T04:11:10.196Z,-0.41
2022-12-11T04:13:37.614Z,-0.44
2022-12-11T04:16:04.596Z,-0.43
2022-12-11T04:18:49.791Z,-0.42
2022-12-11T04:21:39.489Z,-0.47
2022-12-11T04:24:16.691Z,-0.47
2022-12-11T04:26:45.709Z,-0.47
2022-12-11T04:29:13.289Z,-0.44
2022-12-11T04:31:40.312Z,-0.43
2022-12-11T04:34:07.260Z,-0.40
2022-12-11T04:36:34.603Z,-0.39
2022-12-11T04:39:01.414Z,-0.40
2022-12-11T04:41:29.087Z,-0.42
2022-12-11T04:43:55.883Z,-0.38
2022-12-11T04:46:24.390Z,-0.37
2022-12-11T04:48:57.099Z,-0.36
2022-12-11T04:51:25.031Z,-0.38
2022-12-11T04:53:52.031Z,-0.36
2022-12-11T04:56:18.997Z,-0.39
2022-12-11T04:58:46.803Z,-0.38
2022-12-11T05:01:16.614Z,-0.36
2022-12-11T05:03:43.676Z,-0.37
2022-12-11T05:06:11.557Z,-0.37
2022-12-11T05:08:40.630Z,-0.36
2022-12-11T05:11:09.986Z,-0.33
2022-12-11T05:13:37.638Z,-0.34
2022-12-11T05:16:06.206Z,-0.36
2022-12-11T05:18:33.261Z,-0.38
2022-12-11T05:21:06.182Z,-0.38
2022-12-11T05:23:33.326Z,-0.39
2022-12-11T05:26:03.522Z,-0.36
2022-12-11T05:28:36.147Z,-0.32
2022-12-11T05:31:08.847Z,-0.34
2022-12-11T05:33:35.835Z,-0.37
2022-12-11T05:36:03.425Z,-0.36
2022-12-11T05:38:30.663Z,-0.35
2022-12-11T05:41:04.865Z,-0.36
2022-12-11T05:43:33.540Z,-0.37
2022-12-11T05:46:14.961Z,-0.37
2022-12-11T05:48:42.726Z,-0.37
2022-12-11T05:51:09.940Z,-0.38
2022-12-11T05:53:38.269Z,-0.40
2022-12-11T05:56:16.406Z,-0.42
2022-12-11T05:58:44.988Z,-0.44
2022-12-11T06:01:28.264Z,-0.45
2022-12-11T06:03:56.080Z,-0.47
2022-12-11T06:06:23.945Z,-0.52
2022-12-11T06:08:51.705Z,-0.53
2022-12-11T06:11:23.784Z,-0.56
2022-12-11T06:13:52.386Z,-0.51
2022-12-11T06:16:20.156Z,-0.51
2022-12-11T06:18:48.038Z,-0.53
2022-12-11T06:21:19.028Z,-0.49
2022-12-11T06:23:47.485Z,-0.47
2022-12-11T06:26:15.191Z,-0.51
2022-12-11T06:28:42.113Z,-0.51
2022-12-11T06:31:09.005Z,-0.53
2022-12-11T06:33:36.333Z,-0.58
2022-12-11T06:36:16.279Z,-0.59
2022-12-11T06:38:43.820Z,-0.58
2022-12-11T06:41:11.414Z,-0.59
2022-12-11T06:43:40.327Z,-0.59
2022-12-11T06:46:10.069Z,-0.56
2022-12-11T06:48:37.065Z,-0.55
2022-12-11T06:51:12.689Z,-0.51
2022-12-11T06:53:40.235Z,-0.51
2022-12-11T06:56:10.269Z,-0.54
2022-12-11T06:58:37.868Z,-0.56
2022-12-11T07:01:13.620Z,-0.54
2022-12-11T07:03:41.529Z,-0.52
2022-12-11T07:06:08.879Z,-0.45
2022-12-11T07:08:36.157Z,-0.42
2022-12-11T07:11:05.693Z,-0.39
2022-12-11T07:13:33.008Z,-0.35
2022-12-11T07:16:02.066Z,-0.35
2022-12-11T07:18:29.204Z,-0.33
2022-12-11T07:20:59.158Z,-0.30
2022-12-11T07:23:28.663Z,-0.30
2022-12-11T07:25:56.413Z,-0.25
2022-12-11T07:28:23.432Z,-0.23
2022-12-11T07:30:50.385Z,-0.20
2022-12-11T07:33:17.395Z,-0.19
2022-12-11T07:35:44.423Z,-0.17
2022-12-11T07:38:11.805Z,-0.17
2022-12-11T07:40:38.616Z,-0.21
2022-12-11T07:43:05.473Z,-0.22
2022-12-11T07:45:32.530Z,-0.23
2022-12-11T07:47:59.737Z,-0.22
2022-12-11T07:50:26.551Z,-0.23
2022-12-11T07:52:53.559Z,-0.22
2022-12-11T07:55:20.399Z,-0.28
2022-12-11T07:57:47.333Z,-0.30
2022-12-11T08:00:14.911Z,-0.37
2022-12-11T08:02:42.145Z,-0.34
2022-12-11T08:05:09.355Z,-0.38
2022-12-11T08:07:36.447Z,-0.41
2022-12-11T08:10:04.901Z,-0.44
2022-12-11T08:12:31.747Z,-0.42
2022-12-11T08:14:58.575Z,-0.41
2022-12-11T08:17:29.557Z,-0.35
2022-12-11T08:19:57.937Z,-0.36
2022-12-11T08:22:24.800Z,-0.33
2022-12-11T08:24:51.832Z,-0.30
2022-12-11T08:27:18.777Z,-0.26
2022-12-11T08:29:47.824Z,-0.20
2022-12-11T08:32:16.879Z,-0.14
2022-12-11T08:34:46.038Z,-0.10
2022-12-11T08:37:13.809Z,-0.09
2022-12-11T08:39:40.729Z,-0.09
2022-12-11T08:42:07.796Z,-0.07
2022-12-11T08:44:35.843Z,-0.06
2022-12-11T08:47:03.009Z,-0.07
2022-12-11T08:49:34.353Z,-0.11
2022-12-11T08:52:03.576Z,-0.10
2022-12-11T08:54:30.543Z,-0.10
2022-12-11T08:56:58.431Z,-0.09
2022-12-11T08:59:25.951Z,-0.08
2022-12-11T09:01:55.363Z,-0.07
2022-12-11T09:04:23.822Z,-0.04
2022-12-11T09:06:50.677Z,-0.01
2022-12-11T09:09:20.625Z,0.00
2022-12-11T09:11:48.105Z,-0.02
2022-12-11T09:14:16.188Z,0.04
2022-12-11T09:16:43.576Z,0.02
2022-12-11T09:19:14.433Z,0.04
2022-12-11T09:21:42.971Z,0.04
2022-12-11T09:24:11.975Z,0.08
2022-12-11T09:26:39.519Z,0.12
2022-12-11T09:29:07.477Z,0.13
2022-12-11T09:31:36.462Z,0.17
2022-12-11T09:34:06.766Z,0.18
2022-12-11T09:36:34.965Z,0.15
2022-12-11T09:39:04.735Z,0.09
2022-12-11T09:41:55.129Z,0.06
2022-12-11T09:44:42.531Z,-0.03
2022-12-11T09:47:36.218Z,-0.10
2022-12-11T09:50:09.081Z,-0.12
2022-12-11T09:52:35.944Z,-0.13
2022-12-11T09:55:19.843Z,-0.11
2022-12-11T09:58:22.402Z,-0.02
2022-12-11T10:01:18.100Z,0.11
2022-12-11T10:04:09.808Z,0.12
2022-12-11T10:07:04.112Z,0.10
2022-12-11T10:09:34.082Z,0.10
2022-12-11T10:12:15.054Z,0.12
2022-12-11T10:15:00.837Z,0.12
2022-12-11T10:17:37.253Z,0.14
2022-12-11T10:20:19.016Z,0.17
2022-12-11T10:22:47.046Z,0.27
2022-12-11T10:25:31.701Z,0.40
2022-12-11T10:28:00.556Z,0.52
2022-12-11T10:30:37.754Z,0.64
2022-12-11T10:33:19.881Z,0.77
2022-12-11T10:35:56.040Z,0.96
2022-12-11T10:38:33.779Z,1.14
2022-12-11T10:41:11.866Z,1.30
2022-12-11T10:43:47.077Z,1.44
2022-12-11T10:46:20.662Z,1.52
2022-12-11T10:48:53.617Z,1.62
2022-12-11T10:51:24.758Z,1.62
2022-12-11T10:54:06.879Z,1.68
2022-12-11T10:56:37.582Z,1.83
2022-12-11T10:59:05.064Z,1.96
2022-12-11T11:01:33.250Z,2.13
2022-12-11T11:04:01.077Z,2.28
2022-12-11T11:06:28.083Z,2.40
2022-12-11T11:08:58.232Z,2.50
2022-12-11T11:11:27.208Z,2.55
2022-12-11T11:14:23.339Z,2.38
2022-12-11T11:16:52.889Z,2.23
2022-12-11T11:19:24.776Z,2.14
2022-12-11T11:21:55.254Z,2.07
2022-12-11T11:24:30.044Z,1.97
2022-12-11T11:27:13.261Z,1.96
2022-12-11T11:29:42.090Z,1.97
2022-12-11T11:32:20.325Z,1.95
2022-12-11T11:34:47.212Z,1.90
2022-12-11T11:37:34.762Z,1.84
2022-12-11T11:40:38.688Z,1.70
2022-12-11T11:43:15.833Z,1.53
2022-12-11T11:46:01.248Z,1.45
2022-12-11T11:48:40.547Z,1.35
2022-12-11T11:51:15.445Z,1.24
2022-12-11T11:53:47.583Z,1.11
2022-12-11T11:56:21.634Z,1.04
2022-12-11T11:58:57.715Z,1.04
2022-12-11T12:01:25.020Z,1.05
2022-12-11T12:03:52.876Z,1.04
2022-12-11T12:06:50.719Z,0.92
2022-12-11T12:09:26.436Z,0.83
2022-12-11T12:12:19.413Z,0.76
2022-12-11T12:14:58.929Z,0.72
2022-12-11T12:21:23.026Z,0.79
2022-12-11T12:24:20.782Z,0.87
2022-12-11T12:27:01.867Z,0.89
2022-12-11T12:29:48.987Z,0.93
2022-12-11T12:32:36.852Z,0.90
2022-12-11T12:35:10.855Z,0.87
2022-12-11T12:38:09.669Z,0.87
2022-12-11T12:41:05.652Z,0.89
2022-12-11T12:43:35.719Z,0.92
2022-12-11T12:46:15.754Z,0.96
2022-12-11T12:48:42.790Z,0.93
2022-12-11T12:51:14.236Z,0.95
2022-12-11T12:53:47.332Z,0.89
2022-12-11T12:56:15.727Z,0.88
2022-12-11T12:58:45.446Z,0.90
2022-12-11T13:01:13.131Z,0.88
2022-12-11T13:03:53.996Z,0.85
2022-12-11T13:06:42.104Z,0.90
2022-12-11T13:09:12.203Z,0.89
2022-12-11T13:11:40.361Z,0.86
2022-12-11T13:14:24.183Z,0.81
2022-12-11T13:17:04.380Z,0.76
2022-12-11T13:19:42.105Z,0.78
2022-12-11T13:22:12.624Z,0.81
2022-12-11T13:25:19.668Z,0.82
2022-12-11T13:27:52.635Z,0.81
2022-12-11T13:30:19.533Z,0.80
2022-12-11T13:33:03.278Z,0.82
2022-12-11T13:35:32.188Z,0.80
2022-12-11T13:38:17.286Z,0.77
2022-12-11T13:40:47.004Z,0.74
2022-12-11T13:43:25.125Z,0.76
2022-12-11T13:45:59.152Z,0.74
2022-12-11T13:48:30.099Z,0.70
2022-12-11T13:51:00.352Z,0.68
2022-12-11T13:53:28.252Z,0.60
2022-12-11T13:56:09.692Z,0.57
2022-12-11T13:58:41.396Z,0.54
2022-12-11T14:01:16.719Z,0.55
2022-12-11T14:04:05.013Z,0.53
2022-12-11T14:06:33.628Z,0.50
2022-12-11T14:09:01.970Z,0.48
2022-12-11T14:11:34.533Z,0.36
2022-12-11T14:14:06.767Z,0.33
2022-12-11T14:16:34.451Z,0.28
2022-12-11T14:19:16.576Z,0.21
2022-12-11T14:21:55.821Z,0.18
2022-12-11T14:24:23.467Z,0.22
2022-12-11T14:26:52.453Z,0.20
2022-12-11T14:29:27.248Z,0.22
2022-12-11T14:31:55.122Z,0.20
2022-12-11T14:34:28.749Z,0.16
2022-12-11T14:36:57.190Z,0.15
2022-12-11T14:39:37.999Z,0.11
2022-12-11T14:42:14.984Z,0.08
2022-12-11T14:44:55.919Z,0.05
2022-12-11T14:47:29.284Z,0.02
2022-12-11T14:50:08.734Z,-0.04
2022-12-11T14:52:43.215Z,-0.07
2022-12-11T14:55:14.620Z,-0.13
2022-12-11T14:57:46.625Z,-0.17
2022-12-11T15:00:48.099Z,-0.13
2022-12-11T15:03:24.675Z,-0.15
2022-12-11T15:05:56.635Z,-0.20
2022-12-11T15:08:35.384Z,-0.23
2022-12-11T15:11:12.772Z,-0.24
2022-12-11T15:13:59.023Z,-0.29
2022-12-11T15:16:32.025Z,-0.37
2022-12-11T15:18:59.879Z,0.26
2022-12-11T15:21:36.099Z,-0.62
2022-12-11T15:24:05.847Z,-0.63
2022-12-11T15:26:40.563Z,-0.66
2022-12-11T15:29:26.812Z,-0.68
2022-12-11T15:32:08.205Z,-0.64
2022-12-11T15:34:42.156Z,-0.65
2022-12-11T15:37:23.060Z,-0.61
2022-12-11T15:39:51.200Z,-0.60
2022-12-11T15:42:42.117Z,-0.54
2022-12-11T15:45:18.953Z,-0.53
2022-12-11T15:47:48.705Z,-0.48
2022-12-11T15:50:25.585Z,-0.42
2022-12-11T15:52:54.179Z,-0.38
2022-12-11T15:55:23.037Z,-0.39
2022-12-11T15:57:56.030Z,-0.31
2022-12-11T16:00:24.143Z,-0.31
2022-12-11T16:02:52.276Z,-0.29
2022-12-11T16:05:20.073Z,-0.28
2022-12-11T16:07:47.842Z,-0.28
2022-12-11T16:10:19.361Z,-0.27
2022-12-11T16:12:51.233Z,-0.21
2022-12-11T16:15:28.230Z,-0.24
2022-12-11T16:18:09.013Z,-0.25
2022-12-11T16:20:37.849Z,-0.32
2022-12-11T16:23:05.765Z,-0.34
2022-12-11T16:25:33.089Z,-0.27
2022-12-11T16:28:02.498Z,-0.29
2022-12-11T16:30:30.148Z,-0.25
2022-12-11T16:32:57.503Z,-0.23
2022-12-11T16:35:24.890Z,-0.23
2022-12-11T16:37:54.961Z,-0.20
2022-12-11T16:40:22.674Z,-0.20
2022-12-11T16:42:50.915Z,-0.23
2022-12-11T16:45:23.760Z,-0.24
2022-12-11T16:47:51.261Z,-0.28
2022-12-11T16:50:20.354Z,-0.26
2022-12-11T16:52:47.565Z,-0.28
2022-12-11T16:55:15.320Z,-0.30
2022-12-11T16:57:42.596Z,-0.35
2022-12-11T17:00:12.862Z,-0.41
2022-12-11T17:02:41.667Z,-0.44
2022-12-11T17:05:08.939Z,-0.49
2022-12-11T17:07:36.879Z,-0.53
2022-12-11T17:10:04.642Z,-0.52
2022-12-11T17:12:32.018Z,-0.52
2022-12-11T17:15:01.608Z,-0.53
2022-12-11T17:17:28.747Z,-0.53
2022-12-11T17:19:56.013Z,-0.54
2022-12-11T17:22:23.311Z,-0.48
2022-12-11T17:24:50.357Z,-0.51
2022-12-11T17:27:18.010Z,-0.54
2022-12-11T17:29:45.032Z,-0.49
2022-12-11T17:32:11.992Z,-0.54
2022-12-11T17:34:38.964Z,-0.61
2022-12-11T17:37:06.478Z,-0.61
2022-12-11T17:39:34.027Z,-0.60
2022-12-11T17:42:03.059Z,-0.58
2022-12-11T17:44:31.339Z,-0.55
2022-12-11T17:46:58.931Z,-0.51
2022-12-11T17:49:26.659Z,-0.49
2022-12-11T17:51:55.567Z,-0.51
2022-12-11T17:54:24.030Z,-0.58
2022-12-11T17:56:51.647Z,-0.59
2022-12-11T17:59:18.743Z,-0.54
2022-12-11T18:01:45.810Z,-0.52
2022-12-11T18:04:13.281Z,-0.48
2022-12-11T18:06:43.751Z,-0.49
2022-12-11T18:09:11.480Z,-0.47
2022-12-11T18:11:38.892Z,-0.47
2022-12-11T18:14:08.420Z,-0.49
2022-12-11T18:16:38.437Z,-0.50
2022-12-11T18:19:06.578Z,-0.47
2022-12-11T18:21:36.234Z,-0.48
2022-12-11T18:24:05.290Z,-0.48
2022-12-11T18:26:32.657Z,-0.48
2022-12-11T18:28:59.548Z,-0.46
2022-12-11T18:31:27.838Z,-0.42
2022-12-11T18:33:55.016Z,-0.41
2022-12-11T18:36:23.530Z,-0.39
2022-12-11T18:38:51.703Z,-0.39
2022-12-11T18:41:21.169Z,-0.37
2022-12-11T18:43:50.291Z,-0.41
2022-12-11T18:46:20.260Z,-0.49
2022-12-11T18:48:50.577Z,-0.50
2022-12-11T18:51:25.519Z,-0.51
2022-12-11T18:53:52.863Z,-0.54
2022-12-11T18:56:21.574Z,-0.59
2022-12-11T18:58:50.943Z,-0.59
2022-12-11T19:01:25.127Z,-0.59
2022-12-11T19:04:02.393Z,-0.64
2022-12-11T19:06:39.651Z,-0.64
2022-12-11T19:09:16.514Z,-0.63
2022-12-11T19:11:43.948Z,-0.62
2022-12-11T19:14:16.764Z,-0.65
2022-12-11T19:16:45.641Z,-0.65
2022-12-11T19:19:16.508Z,-0.63
2022-12-11T19:21:44.573Z,-0.60
2022-12-11T19:24:15.997Z,-0.61
2022-12-11T19:26:44.065Z,-0.63
2022-12-11T19:29:19.912Z,-0.69
2022-12-11T19:31:48.774Z,-0.67
2022-12-11T19:34:16.451Z,-0.67
2022-12-11T19:39:26.457Z,-0.70
2022-12-11T19:41:54.060Z,-0.74
2022-12-11T19:44:23.943Z,-0.71
2022-12-11T19:46:53.063Z,-0.74
2022-12-11T19:49:24.153Z,-0.70
2022-12-11T19:51:52.797Z,-0.71
2022-12-11T19:54:20.593Z,-0.71
2022-12-11T19:56:50.271Z,-0.72
2022-12-11T19:59:20.902Z,-0.74
2022-12-11T20:01:50.866Z,-0.79
2022-12-11T20:04:18.653Z,-0.83
2022-12-11T20:06:49.669Z,-0.81
2022-12-11T20:09:17.146Z,-0.87
2022-12-11T20:11:46.611Z,-0.89
2022-12-11T20:14:24.569Z,-0.96
2022-12-11T20:17:12.757Z,-1.02
2022-12-11T20:19:43.237Z,-1.05
2022-12-11T20:22:10.742Z,-1.08
2022-12-11T20:24:38.001Z,-1.08
2022-12-11T20:27:08.172Z,-1.09
2022-12-11T20:29:35.542Z,-1.11
2022-12-11T20:32:03.020Z,-1.13
2022-12-11T20:34:30.113Z,-1.19
2022-12-11T20:36:57.336Z,-1.21
2022-12-11T20:39:25.275Z,-1.23
2022-12-11T20:41:53.302Z,-1.12
2022-12-11T20:44:22.190Z,-1.11
2022-12-11T20:46:51.498Z,-1.06
2022-12-11T20:49:19.067Z,-1.06
2022-12-11T20:51:46.298Z,-1.07
2022-12-11T20:54:13.416Z,-1.07
2022-12-11T20:56:40.395Z,-1.09
2022-12-11T20:59:11.816Z,-1.12
2022-12-11T21:01:43.400Z,-1.13
2022-12-11T21:04:13.105Z,-1.16
2022-12-11T21:06:40.841Z,-1.27
2022-12-11T21:09:13.603Z,-1.27
2022-12-11T21:11:42.070Z,-1.29
2022-12-11T21:14:13.661Z,-1.32
2022-12-11T21:16:43.831Z,-1.35
2022-12-11T21:19:16.544Z,-1.42
2022-12-11T21:21:45.405Z,-1.47
2022-12-11T21:24:26.724Z,-1.49
2022-12-11T21:26:56.054Z,-1.50
2022-12-11T21:29:25.256Z,-1.56
2022-12-11T21:31:52.544Z,-1.65
2022-12-11T21:34:25.026Z,-1.66
2022-12-11T21:36:56.883Z,-1.68
2022-12-11T21:39:26.427Z,-1.77
2022-12-11T21:41:53.425Z,-1.91
2022-12-11T21:47:09.714Z,-2.09
2022-12-11T21:49:37.952Z,-2.27
2022-12-11T21:52:06.606Z,-2.43
2022-12-11T21:54:34.288Z,-2.54
2022-12-11T21:57:01.661Z,-2.58
2022-12-11T21:59:29.347Z,-2.59
2022-12-11T22:01:56.593Z,-2.57
2022-12-11T22:04:23.954Z,-2.58
2022-12-11T22:06:53.286Z,-2.58
2022-12-11T22:09:21.773Z,-2.68
2022-12-11T22:11:50.619Z,-2.75
2022-12-11T22:14:21.965Z,-2.83
2022-12-11T22:16:48.922Z,-2.80
2022-12-11T22:19:18.649Z,-2.87
2022-12-11T22:21:45.656Z,-2.87
2022-12-11T22:24:12.762Z,-2.91
2022-12-11T22:26:40.374Z,-2.92
2022-12-11T22:29:07.591Z,-2.95
2022-12-11T22:31:35.595Z,-2.95
2022-12-11T22:34:02.968Z,-3.08
2022-12-11T22:36:30.330Z,-3.15
2022-12-11T22:38:57.660Z,-3.26
2022-12-11T22:41:30.238Z,-3.33
2022-12-11T22:44:00.099Z,-3.45
2022-12-11T22:46:32.441Z,-3.53
2022-12-11T22:48:59.976Z,-3.57
2022-12-11T22:51:27.022Z,-3.63
2022-12-11T22:53:53.931Z,-3.72
2022-12-11T22:56:21.221Z,-3.73
2022-12-11T22:58:48.169Z,-3.76
2022-12-11T23:01:21.294Z,-3.73
2022-12-11T23:03:48.845Z,-3.72
2022-12-11T23:06:18.857Z,-3.75
2022-12-11T23:08:47.265Z,-3.79
2022-12-11T23:11:27.601Z,-3.84
2022-12-11T23:13:55.231Z,-3.86
2022-12-11T23:16:23.946Z,-3.87
2022-12-11T23:18:51.945Z,-3.94
2022-12-11T23:21:19.238Z,-4.07
2022-12-11T23:23:47.035Z,-4.21
2022-12-11T23:26:14.828Z,-4.22
2022-12-11T23:28:42.534Z,-4.25
2022-12-11T23:31:09.685Z,-4.24
2022-12-11T23:33:37.197Z,-4.19
2022-12-11T23:36:05.315Z,-4.15
2022-12-11T23:38:32.997Z,-4.20
2022-12-11T23:41:02.852Z,-4.16
